Time;durP1;ratioP1;P1;durP2;ratioP2;P2;SDS_P1;SDS_P2;PMS_P1;PMS_P2;Temp;Humidity;BMP_temperature;BMP_pressure;BME280_temperature;BME280_humidity;BME280_pressure;Samples;Min_cycle;Max_cycle;Signal;HPM_P1;HPM_P2
2023/10/20 00:00:48;;;;;;;6.88;3.90;;;;;;;7.64;100.00;99258.66;7380166;19;19933;-67
2023/10/20 00:03:16;;;;;;;5.47;4.25;;;;;;;7.64;100.00;99254.13;7392706;19;19933;-67
2023/10/20 00:05:45;;;;;;;6.32;4.07;;;;;;;7.66;100.00;99253.94;7394342;19;19963;-68
2023/10/20 00:08:14;;;;;;;8.32;4.22;;;;;;;7.67;100.00;99277.03;7395788;19;19962;-67
2023/10/20 00:10:45;;;;;;;7.90;4.75;;;;;;;7.67;100.00;99285.91;7390831;19;19986;-68
2023/10/20 00:13:14;;;;;;;8.65;4.43;;;;;;;7.66;100.00;99278.88;7396646;19;19926;-67
2023/10/20 00:15:46;;;;;;;8.30;4.78;;;;;;;7.67;100.00;99293.13;7399520;19;19927;-68
2023/10/20 00:18:15;;;;;;;7.30;4.50;;;;;;;7.66;100.00;99284.25;7398522;19;19927;-68
2023/10/20 00:20:44;;;;;;;9.05;4.85;;;;;;;7.67;100.00;99288.59;7398115;19;19923;-68
2023/10/20 00:23:14;;;;;;;8.05;4.50;;;;;;;7.67;100.00;99271.69;7394431;19;19926;-68
2023/10/20 00:25:46;;;;;;;8.00;4.35;;;;;;;7.67;100.00;99264.47;7392344;19;19961;-68
2023/10/20 00:28:14;;;;;;;9.20;5.32;;;;;;;7.67;100.00;99251.06;7395831;19;19923;-68
2023/10/20 00:30:44;;;;;;;7.32;4.45;;;;;;;7.70;100.00;99257.88;7397297;19;19923;-68
2023/10/20 00:33:13;;;;;;;8.70;5.28;;;;;;;7.70;100.00;99263.22;7398579;19;19933;-68
2023/10/20 00:35:42;;;;;;;9.15;5.35;;;;;;;7.72;100.00;99247.78;7396579;19;19918;-68
2023/10/20 00:38:11;;;;;;;11.18;5.95;;;;;;;7.69;100.00;99240.13;7395790;19;19918;-68
2023/10/20 00:40:50;;;;;;;13.40;6.95;;;;;;;7.67;100.00;99240.34;7397709;19;19914;-68
2023/10/20 00:43:19;;;;;;;13.00;6.13;;;;;;;7.71;100.00;99240.78;7396409;19;20268;-68
2023/10/20 00:45:48;;;;;;;10.40;6.25;;;;;;;7.69;100.00;99230.25;7396112;19;19923;-68
2023/10/20 00:48:17;;;;;;;10.95;6.22;;;;;;;7.71;100.00;99205.94;7395793;19;19935;-68
2023/10/20 00:50:46;;;;;;;8.80;5.65;;;;;;;7.71;100.00;99195.22;7395631;19;19982;-69
2023/10/20 00:53:15;;;;;;;9.63;6.43;;;;;;;7.70;100.00;99201.59;7395825;19;19922;-68
2023/10/20 00:55:43;;;;;;;12.77;6.97;;;;;;;7.69;100.00;99211.47;7393588;19;20003;-68
2023/10/20 00:58:15;;;;;;;10.00;5.53;;;;;;;7.68;100.00;99217.84;7394363;19;19947;-68
2023/10/20 01:00:44;;;;;;;11.55;6.55;;;;;;;7.68;100.00;99206.31;7394578;19;20356;-68
2023/10/20 01:03:13;;;;;;;11.48;6.53;;;;;;;7.69;100.00;99210.66;7392533;19;19923;-68
2023/10/20 01:05:42;;;;;;;10.88;6.43;;;;;;;7.67;100.00;99212.72;7393308;19;19985;-68
2023/10/20 01:08:11;;;;;;;11.65;6.78;;;;;;;7.67;100.00;99210.03;7397175;19;19926;-68
2023/10/20 01:10:39;;;;;;;9.93;6.20;;;;;;;7.67;100.00;99210.03;7393653;19;19978;-68
2023/10/20 01:13:08;;;;;;;12.32;6.63;;;;;;;7.67;100.00;99200.16;7397484;19;20596;-68
2023/10/20 01:15:41;;;;;;;12.30;7.63;;;;;;;7.67;100.00;99197.47;7389829;19;19965;-68
2023/10/20 01:18:11;;;;;;;13.63;7.00;;;;;;;7.67;100.00;99194.78;7389480;19;20292;-68
2023/10/20 01:20:40;;;;;;;10.88;6.80;;;;;;;7.68;100.00;99179.50;7397524;19;19922;-68
2023/10/20 01:23:09;;;;;;;14.35;6.82;;;;;;;7.68;100.00;99174.13;7395160;19;20245;-68
2023/10/20 01:25:40;;;;;;;11.90;7.28;;;;;;;7.67;100.00;99167.97;7395996;19;19922;-69
2023/10/20 01:28:12;;;;;;;10.57;6.60;;;;;;;7.66;100.00;99174.38;7388961;19;19953;-68
2023/10/20 01:30:40;;;;;;;12.02;5.97;;;;;;;7.66;100.00;99154.78;7394836;19;20246;-68
2023/10/20 01:33:09;;;;;;;11.20;6.15;;;;;;;7.66;100.00;99134.16;7395343;19;19922;-68
2023/10/20 01:35:38;;;;;;;10.45;6.40;;;;;;;7.65;100.00;99131.66;7396724;19;19926;-68
2023/10/20 01:38:07;;;;;;;11.70;6.55;;;;;;;7.63;100.00;99117.66;7393910;19;19922;-68
2023/10/20 01:40:35;;;;;;;12.75;6.43;;;;;;;7.64;100.00;99112.09;7391520;19;19961;-68
2023/10/20 01:43:06;;;;;;;11.75;5.90;;;;;;;7.64;100.00;99120.13;7394689;19;19951;-68
2023/10/20 01:45:35;;;;;;;13.25;6.03;;;;;;;7.66;100.00;99109.22;7393234;19;19933;-68
2023/10/20 01:48:04;;;;;;;11.73;6.63;;;;;;;7.66;100.00;99106.53;7396592;19;19918;-68
2023/10/20 01:50:32;;;;;;;12.63;5.68;;;;;;;7.65;100.00;99091.47;7394096;19;20768;-68
2023/10/20 01:53:02;;;;;;;13.68;6.95;;;;;;;7.62;100.00;99113.31;7396077;19;19974;-68
2023/10/20 01:55:30;;;;;;;10.70;6.35;;;;;;;7.60;100.00;99101.97;7391297;19;19989;-68
2023/10/20 01:57:59;;;;;;;10.57;6.63;;;;;;;7.56;100.00;99131.03;7392648;19;19919;-68
2023/10/20 02:00:31;;;;;;;9.40;5.75;;;;;;;7.57;100.00;99137.22;7397569;19;19915;-68
2023/10/20 02:03:00;;;;;;;11.35;6.22;;;;;;;7.56;100.00;99130.19;7394354;19;20573;-68
2023/10/20 02:05:28;;;;;;;14.13;6.75;;;;;;;7.56;100.00;99128.34;7394456;19;19943;-68
2023/10/20 02:07:57;;;;;;;9.50;6.32;;;;;;;7.57;100.00;99148.75;7394298;19;19947;-68
2023/10/20 02:10:25;;;;;;;14.02;7.18;;;;;;;7.57;100.00;99150.59;7392241;19;20515;-68
2023/10/20 02:12:55;;;;;;;12.88;6.63;;;;;;;7.58;100.00;99133.50;7392282;19;20472;-68
2023/10/20 02:15:23;;;;;;;15.25;6.65;;;;;;;7.58;100.00;99133.50;7393400;19;20250;-68
2023/10/20 02:17:55;;;;;;;14.50;6.97;;;;;;;7.57;100.00;99130.00;7394859;19;19957;-68
2023/10/20 02:20:25;;;;;;;11.63;7.03;;;;;;;7.56;100.00;99122.97;7394939;19;19927;-68
2023/10/20 02:22:54;;;;;;;13.43;7.45;;;;;;;7.56;100.00;99122.16;7394324;19;19919;-68
2023/10/20 02:25:22;;;;;;;11.75;7.05;;;;;;;7.55;100.00;99115.97;7391300;19;19923;-68
2023/10/20 02:27:51;;;;;;;14.45;7.38;;;;;;;7.55;100.00;99115.16;7392189;19;19951;-68
2023/10/20 02:30:21;;;;;;;14.05;6.95;;;;;;;7.55;100.00;99110.59;7391779;19;20415;-68
2023/10/20 02:32:49;;;;;;;11.80;7.00;;;;;;;7.54;100.00;99102.78;7392903;19;19919;-68
2023/10/20 02:35:21;;;;;;;13.02;6.45;;;;;;;7.53;100.00;99117.19;7394808;19;19955;-68
2023/10/20 02:37:49;;;;;;;14.18;7.50;;;;;;;7.54;100.00;99108.16;7394171;19;19942;-68
2023/10/20 02:40:18;;;;;;;12.48;6.28;;;;;;;7.52;100.00;99119.06;7392927;19;20404;-68
2023/10/20 02:42:47;;;;;;;11.68;6.90;;;;;;;7.50;100.00;99097.00;7394239;19;19933;-68
2023/10/20 02:45:15;;;;;;;11.70;6.18;;;;;;;7.48;100.00;99092.84;7390124;19;19944;-68
2023/10/20 02:47:44;;;;;;;11.23;6.72;;;;;;;7.47;100.00;99093.88;7391077;19;19922;-68
2023/10/20 02:50:14;;;;;;;10.00;6.57;;;;;;;7.47;100.00;99102.75;7392902;19;20631;-68
2023/10/20 02:52:45;;;;;;;11.85;7.13;;;;;;;7.48;100.00;99095.53;7389244;19;19918;-68
2023/10/20 02:55:15;;;;;;;13.85;7.55;;;;;;;7.48;100.00;99098.22;7390230;19;19919;-68
2023/10/20 02:57:44;;;;;;;13.32;7.35;;;;;;;7.47;100.00;99109.94;7390304;19;19943;-68
2023/10/20 03:00:18;;;;;;;11.02;6.47;;;;;;;7.44;100.00;99087.06;7392799;19;19986;-68
2023/10/20 03:02:48;;;;;;;13.95;6.28;;;;;;;7.46;100.00;99076.16;7393598;19;20260;-68
2023/10/20 03:05:20;;;;;;;12.02;6.90;;;;;;;7.45;100.00;99067.31;7393735;19;20277;-68
2023/10/20 03:07:51;;;;;;;10.25;6.32;;;;;;;7.44;100.00;99054.09;7390222;19;19918;-68
2023/10/20 03:10:20;;;;;;;12.32;6.65;;;;;;;7.44;100.00;99048.75;7389952;19;19948;-68
2023/10/20 03:12:49;;;;;;;11.82;7.03;;;;;;;7.43;100.00;99041.72;7388449;19;19951;-68
2023/10/20 03:15:17;;;;;;;13.20;6.28;;;;;;;7.44;100.00;99044.22;7391542;19;19914;-68
2023/10/20 03:17:46;;;;;;;10.02;5.63;;;;;;;7.43;100.00;99037.19;7393340;19;20752;-68
2023/10/20 03:20:16;;;;;;;13.38;6.47;;;;;;;7.43;100.00;99041.72;7387294;19;19922;-68
2023/10/20 03:22:44;;;;;;;13.95;6.25;;;;;;;7.41;100.00;99035.75;7392263;19;19922;-68
2023/10/20 03:25:17;;;;;;;10.02;5.47;;;;;;;7.37;100.00;99040.69;7393716;19;19940;-68
2023/10/20 03:27:46;;;;;;;10.20;5.97;;;;;;;7.37;100.00;99045.22;7388378;19;20533;-68
2023/10/20 03:30:15;;;;;;;9.18;5.80;;;;;;;7.40;100.00;99034.94;7389969;19;19922;-68
2023/10/20 03:32:44;;;;;;;11.27;5.65;;;;;;;7.38;100.00;99022.78;7382604;19;20275;-68
2023/10/20 03:35:12;;;;;;;9.95;5.45;;;;;;;7.39;100.00;99019.06;7392667;19;19944;-68
2023/10/20 03:37:41;;;;;;;10.68;5.68;;;;;;;7.40;100.00;99010.00;7393255;19;19919;-68
2023/10/20 03:40:13;;;;;;;10.25;5.40;;;;;;;7.40;100.00;98986.72;7389216;19;19934;-68
2023/10/20 03:42:48;;;;;;;9.07;5.55;;;;;;;7.39;100.00;98987.72;7391298;19;19933;-68
2023/10/20 03:45:17;;;;;;;12.00;5.65;;;;;;;7.39;100.00;98981.53;7391592;19;20351;-68
2023/10/20 03:47:45;;;;;;;7.10;4.57;;;;;;;7.39;100.00;98973.50;7394061;19;19982;-68
2023/10/20 03:50:16;;;;;;;8.02;5.22;;;;;;;7.38;100.00;98967.31;7391006;19;19918;-68
2023/10/20 03:52:45;;;;;;;10.07;5.25;;;;;;;7.39;100.00;98962.78;7388247;19;20341;-68
2023/10/20 03:55:16;;;;;;;8.30;4.55;;;;;;;7.38;100.00;98955.81;7391495;19;19951;-68
2023/10/20 03:57:49;;;;;;;7.68;4.57;;;;;;;7.39;100.00;98962.78;7392433;19;19925;-68
2023/10/20 04:00:21;;;;;;;6.35;4.82;;;;;;;7.37;100.00;98963.03;7392332;19;19939;-68
2023/10/20 04:02:51;;;;;;;8.75;4.78;;;;;;;7.38;100.00;98961.16;7390156;19;19987;-68
2023/10/20 04:05:21;;;;;;;7.90;4.90;;;;;;;7.39;100.00;98952.09;7386470;19;19932;-68
2023/10/20 04:07:50;;;;;;;8.27;4.82;;;;;;;7.38;100.00;98937.84;7390937;19;19953;-67
2023/10/20 04:10:21;;;;;;;5.82;4.00;;;;;;;7.40;100.00;98935.00;7389345;19;20274;-67
2023/10/20 04:12:52;;;;;;;8.45;4.50;;;;;;;7.39;100.00;98930.66;7388700;19;19922;-67
2023/10/20 04:15:25;;;;;;;6.22;3.95;;;;;;;7.40;100.00;98937.66;7387923;19;19927;-68
2023/10/20 04:17:55;;;;;;;6.18;3.90;;;;;;;7.39;100.00;98939.50;7389502;19;19922;-67
2023/10/20 04:20:24;;;;;;;6.60;4.53;;;;;;;7.39;100.00;98933.34;7389844;19;19951;-68
2023/10/20 04:22:53;;;;;;;6.18;4.18;;;;;;;7.38;100.00;98934.38;7391066;19;19933;-67
2023/10/20 04:25:23;;;;;;;8.93;3.90;;;;;;;7.40;100.00;98935.81;7388657;19;19926;-68
2023/10/20 04:27:57;;;;;;;6.43;3.63;;;;;;;7.39;100.00;98933.34;7387160;19;20329;-67
2023/10/20 04:47:36;;;;;;;7.82;3.20;;;;;;;7.42;100.00;98922.22;7387728;19;19965;-67
2023/10/20 04:58:04;;;;;;;6.70;3.70;;;;;;;7.41;100.00;98899.97;7393996;19;19958;-67
2023/10/20 05:00:40;;;;;;;6.70;3.38;;;;;;;7.42;100.00;98911.50;7392798;19;20250;-67
2023/10/20 05:03:29;;;;;;;5.88;2.90;;;;;;;7.41;100.00;98899.97;7395823;19;19961;-68
2023/10/20 05:06:12;;;;;;;4.97;3.05;;;;;;;7.42;100.00;98898.91;7393688;19;19925;-67
2023/10/20 05:08:41;;;;;;;6.10;3.55;;;;;;;7.42;100.00;98890.88;7392069;19;19926;-68
2023/10/20 05:11:09;;;;;;;4.65;2.88;;;;;;;7.42;100.00;98893.56;7391243;19;19936;-68
2023/10/20 05:13:38;;;;;;;5.05;3.20;;;;;;;7.44;100.00;98879.97;7391741;19;19918;-68
2023/10/20 05:16:09;;;;;;;4.38;3.05;;;;;;;7.44;100.00;98874.63;7393323;19;20499;-68
2023/10/20 05:18:38;;;;;;;3.95;2.90;;;;;;;7.42;100.00;98887.41;7395306;19;19927;-68
2023/10/20 05:21:08;;;;;;;4.38;2.53;;;;;;;7.43;100.00;98889.03;7395212;19;20042;-68
2023/10/20 05:23:37;;;;;;;4.65;2.80;;;;;;;7.44;100.00;98890.69;7396549;19;19939;-68
2023/10/20 05:26:05;;;;;;;5.00;2.80;;;;;;;7.44;100.00;98893.38;7391284;19;20320;-68
2023/10/20 05:28:34;;;;;;;5.72;2.90;;;;;;;7.45;100.00;98892.34;7393002;19;19926;-68
2023/10/20 05:31:02;;;;;;;4.95;2.92;;;;;;;7.47;100.00;98892.94;7388663;19;19918;-68
2023/10/20 05:33:34;;;;;;;4.57;2.90;;;;;;;7.47;100.00;98893.78;7392281;19;19922;-68
2023/10/20 05:36:04;;;;;;;4.50;2.45;;;;;;;7.47;100.00;98888.41;7390755;19;19967;-68
2023/10/20 05:38:33;;;;;;;4.00;2.33;;;;;;;7.48;100.00;98886.56;7391089;19;20283;-68
2023/10/20 05:41:02;;;;;;;4.50;2.88;;;;;;;7.48;100.00;98883.88;7396573;19;19927;-69
2023/10/20 05:43:30;;;;;;;3.55;2.60;;;;;;;7.49;100.00;98885.53;7394974;19;19923;-68
2023/10/20 05:45:59;;;;;;;2.78;2.30;;;;;;;7.50;100.00;98887.19;7394920;19;19922;-68
2023/10/20 05:48:28;;;;;;;6.13;2.42;;;;;;;7.50;100.00;98897.91;7394517;19;19927;-68
2023/10/20 05:51:02;;;;;;;4.10;2.30;;;;;;;7.49;100.00;98881.00;7396294;19;19934;-68
2023/10/20 05:53:31;;;;;;;2.88;2.08;;;;;;;7.51;100.00;98884.28;7394596;19;19915;-68
2023/10/20 05:55:59;;;;;;;3.42;1.98;;;;;;;7.51;100.00;98870.91;7393579;19;19926;-68
2023/10/20 05:58:28;;;;;;;2.75;1.90;;;;;;;7.52;100.00;98856.47;7394903;19;19957;-68
2023/10/20 06:00:57;;;;;;;3.00;1.95;;;;;;;7.52;100.00;98847.63;7393217;19;19922;-68
2023/10/20 06:03:25;;;;;;;2.95;1.75;;;;;;;7.52;100.00;98848.44;7393319;19;19971;-68
2023/10/20 06:05:54;;;;;;;2.92;1.73;;;;;;;7.50;100.00;98847.84;7388577;19;19933;-68
2023/10/20 06:08:27;;;;;;;5.25;2.60;;;;;;;7.51;100.00;98840.59;7388331;19;19922;-68
2023/10/20 06:10:55;;;;;;;3.15;1.75;;;;;;;7.51;100.00;98836.06;7393859;19;19922;-67
2023/10/20 06:13:24;;;;;;;4.75;1.52;;;;;;;7.52;100.00;98839.56;7386622;19;20287;-68
2023/10/20 06:15:52;;;;;;;1.83;1.50;;;;;;;7.49;100.00;98827.44;7384932;19;19927;-68
2023/10/20 06:18:21;;;;;;;3.35;1.50;;;;;;;7.48;100.00;98817.75;7389765;19;19918;-67
2023/10/20 06:20:49;;;;;;;2.88;1.40;;;;;;;7.48;100.00;98823.09;7395324;19;19922;-68
2023/10/20 06:23:18;;;;;;;2.47;1.40;;;;;;;7.48;100.00;98811.56;7395866;19;19931;-67
2023/10/20 06:25:50;;;;;;;2.42;1.27;;;;;;;7.46;100.00;98814.47;7382019;19;20002;-68
2023/10/20 06:28:18;;;;;;;1.70;1.17;;;;;;;7.45;100.00;98812.81;7384349;19;19926;-67
2023/10/20 06:30:47;;;;;;;3.97;1.40;;;;;;;7.45;100.00;98815.47;7384078;19;19923;-67
2023/10/20 06:33:19;;;;;;;1.75;1.30;;;;;;;7.44;100.00;98808.47;7398153;19;19922;-67
2023/10/20 06:36:00;;;;;;;4.38;1.40;;;;;;;7.43;100.00;98811.34;7396986;19;19929;-67
2023/10/20 06:38:35;;;;;;;2.63;1.42;;;;;;;7.41;100.00;98832.19;7396905;19;19948;-67
2023/10/20 06:41:06;;;;;;;1.48;0.98;;;;;;;7.41;100.00;98835.69;7398554;19;19947;-67
2023/10/20 06:43:35;;;;;;;2.05;1.17;;;;;;;7.40;100.00;98833.19;7393833;19;19926;-68
2023/10/20 06:46:04;;;;;;;2.92;1.20;;;;;;;7.39;100.00;98837.72;7396875;19;19959;-67
2023/10/20 06:48:33;;;;;;;2.65;1.30;;;;;;;7.37;100.00;98831.75;7394596;19;20939;-67
2023/10/20 06:51:01;;;;;;;1.75;1.05;;;;;;;7.37;100.00;98828.25;7396506;19;20337;-68
2023/10/20 06:53:31;;;;;;;2.47;1.52;;;;;;;7.35;100.00;98841.03;7395875;19;19944;-68
2023/10/20 06:56:05;;;;;;;1.85;1.08;;;;;;;7.34;100.00;98837.50;7391563;19;19935;-68
2023/10/20 06:58:36;;;;;;;2.78;1.30;;;;;;;7.33;100.00;98848.44;7395629;19;20002;-68
2023/10/20 07:01:07;;;;;;;2.15;1.40;;;;;;;7.27;100.00;98848.25;7394215;19;19923;-67
2023/10/20 07:03:36;;;;;;;3.03;1.27;;;;;;;7.26;100.00;98843.06;7396558;19;19948;-67
2023/10/20 07:06:07;;;;;;;1.88;1.17;;;;;;;7.27;100.00;98848.25;7395826;19;20389;-67
2023/10/20 07:08:36;;;;;;;3.30;1.17;;;;;;;7.26;100.00;98840.41;7396278;19;19926;-67
2023/10/20 07:11:05;;;;;;;1.77;1.02;;;;;;;7.25;100.00;98828.03;7393195;19;19954;-67
2023/10/20 07:13:37;;;;;;;3.95;1.50;;;;;;;7.23;100.00;98827.44;7392774;19;19927;-68
2023/10/20 07:16:03;;;;;;;1.67;1.40;;;;;;;7.21;100.00;98819.59;7394109;19;19923;-67
2023/10/20 07:18:32;;;;;;;1.83;1.00;;;;;;;7.23;100.00;98819.41;7394641;19;19914;-67
2023/10/20 07:21:00;;;;;;;2.17;1.25;;;;;;;7.20;100.00;98820.66;7396230;19;20353;-67
2023/10/20 07:23:29;;;;;;;3.28;1.50;;;;;;;7.21;100.00;98824.13;7393172;19;19951;-68
2023/10/20 07:25:57;;;;;;;2.65;1.20;;;;;;;7.17;100.00;98828.25;7390979;19;19927;-67
2023/10/20 07:28:26;;;;;;;2.75;1.58;;;;;;;7.17;100.00;98828.25;7394813;19;19950;-67
2023/10/20 07:30:57;;;;;;;3.40;1.65;;;;;;;7.16;100.00;98822.06;7394389;19;19923;-67
2023/10/20 07:33:26;;;;;;;3.33;1.55;;;;;;;7.16;100.00;98814.03;7394250;19;19926;-68
2023/10/20 07:35:55;;;;;;;2.60;1.48;;;;;;;7.13;100.00;98819.78;7394430;19;19919;-68
2023/10/20 07:38:23;;;;;;;3.03;1.75;;;;;;;7.11;100.00;98816.50;7394892;19;20260;-68
2023/10/20 07:40:52;;;;;;;2.15;1.60;;;;;;;7.11;100.00;98808.47;7392972;19;19977;-68
2023/10/20 07:43:21;;;;;;;2.95;1.75;;;;;;;7.11;100.00;98813.84;7394852;19;19918;-68
2023/10/20 07:45:50;;;;;;;3.30;1.70;;;;;;;7.11;100.00;98819.19;7394204;19;19957;-68
2023/10/20 07:48:21;;;;;;;2.40;1.77;;;;;;;7.11;100.00;98815.69;7395613;19;19954;-68
2023/10/20 07:50:50;;;;;;;2.05;1.27;;;;;;;7.10;100.00;98801.47;7394302;19;19915;-68
2023/10/20 07:53:19;;;;;;;3.58;1.88;;;;;;;7.11;100.00;98819.19;7391016;19;19918;-68
2023/10/20 07:55:48;;;;;;;2.38;1.63;;;;;;;7.11;100.00;98805.81;7391366;19;19948;-68
2023/10/20 07:58:16;;;;;;;2.22;1.52;;;;;;;7.11;100.00;98797.78;7393887;19;19923;-68
2023/10/20 08:00:45;;;;;;;3.97;1.92;;;;;;;7.10;100.00;98798.78;7394173;19;19923;-68
2023/10/20 08:03:13;;;;;;;2.38;1.42;;;;;;;7.08;100.00;98797.34;7389689;19;19926;-68
2023/10/20 08:05:44;;;;;;;3.22;2.00;;;;;;;7.07;100.00;98790.34;7393162;19;19918;-68
2023/10/20 08:08:13;;;;;;;2.60;1.75;;;;;;;7.06;100.00;98783.34;7390299;19;19918;-68
2023/10/20 08:10:42;;;;;;;1.95;1.65;;;;;;;7.05;100.00;98781.69;7390877;19;19914;-68
2023/10/20 08:13:11;;;;;;;4.53;1.85;;;;;;;7.05;100.00;98782.53;7391422;19;19965;-68
2023/10/20 08:15:42;;;;;;;3.80;1.58;;;;;;;7.05;100.00;98779.84;7391891;19;19944;-68
2023/10/20 08:18:17;;;;;;;1.73;1.30;;;;;;;7.04;100.00;98780.88;7390828;19;19923;-68
2023/10/20 08:20:48;;;;;;;2.28;1.30;;;;;;;7.04;100.00;98780.88;7392932;19;20341;-69
2023/10/20 08:23:17;;;;;;;2.33;1.58;;;;;;;7.04;100.00;98788.06;7392451;19;19943;-68
2023/10/20 08:25:45;;;;;;;2.88;1.63;;;;;;;7.03;100.00;98787.25;7391716;19;19947;-68
2023/10/20 08:28:14;;;;;;;2.40;1.38;;;;;;;7.02;100.00;98777.59;7398615;19;19934;-68
2023/10/20 08:30:42;;;;;;;2.33;1.30;;;;;;;7.02;100.00;98782.94;7398357;19;19931;-68
2023/10/20 08:33:11;;;;;;;1.67;1.20;;;;;;;7.04;100.00;98786.22;7396728;19;19923;-68
2023/10/20 08:35:40;;;;;;;2.63;1.30;;;;;;;7.04;100.00;98788.06;7398377;19;19923;-68
2023/10/20 08:38:11;;;;;;;3.13;1.30;;;;;;;7.02;100.00;98774.91;7398908;19;19918;-69
2023/10/20 08:40:40;;;;;;;2.97;1.40;;;;;;;7.00;100.00;98765.41;7399161;19;19978;-68
2023/10/20 08:43:08;;;;;;;2.42;1.42;;;;;;;7.01;100.00;98788.50;7398850;19;20519;-68
2023/10/20 08:45:37;;;;;;;2.42;1.17;;;;;;;6.98;100.00;98781.69;7396932;19;19922;-68
2023/10/20 08:48:08;;;;;;;2.90;1.23;;;;;;;6.95;100.00;98765.19;7397306;19;19927;-68
2023/10/20 08:50:39;;;;;;;1.77;1.15;;;;;;;6.94;100.00;98774.28;7398227;19;19931;-68
2023/10/20 08:53:15;;;;;;;1.70;1.20;;;;;;;6.92;100.00;98761.09;7399143;19;20012;-68
2023/10/20 08:55:44;;;;;;;2.72;1.05;;;;;;;6.90;100.00;98765.84;7396531;19;20441;-69
2023/10/20 08:58:12;;;;;;;4.38;1.25;;;;;;;6.92;100.00;98757.59;7398193;19;20025;-68
2023/10/20 09:00:41;;;;;;;1.38;1.00;;;;;;;6.92;100.00;98766.44;7397530;19;19995;-68
2023/10/20 09:03:10;;;;;;;1.42;1.00;;;;;;;6.93;100.00;98754.72;7397211;19;20222;-68
2023/10/20 09:05:39;;;;;;;4.20;1.10;;;;;;;6.93;100.00;98761.91;7397360;19;20353;-69
2023/10/20 09:08:12;;;;;;;2.25;1.17;;;;;;;6.93;100.00;98765.44;7396304;19;19963;-68
2023/10/20 09:10:45;;;;;;;1.00;0.73;;;;;;;6.92;100.00;98757.59;7397435;19;19929;-68
2023/10/20 09:13:14;;;;;;;1.27;0.98;;;;;;;6.94;100.00;98747.53;7397145;19;19982;-68
2023/10/20 09:15:43;;;;;;;1.92;1.02;;;;;;;6.92;100.00;98750.38;7396026;19;19930;-68
2023/10/20 09:18:11;;;;;;;2.20;0.85;;;;;;;6.91;100.00;98758.63;7397226;19;19918;-68
2023/10/20 09:20:40;;;;;;;1.50;0.93;;;;;;;6.89;100.00;98749.97;7398433;19;19926;-68
2023/10/20 09:23:14;;;;;;;1.23;0.90;;;;;;;6.88;100.00;98746.47;7398157;19;19920;-68
2023/10/20 09:25:43;;;;;;;1.45;0.77;;;;;;;6.87;100.00;98742.16;7395317;19;19919;-68
2023/10/20 09:28:12;;;;;;;1.42;0.70;;;;;;;6.88;100.00;98743.81;7397374;19;20398;-69
2023/10/20 09:30:41;;;;;;;1.67;0.93;;;;;;;6.87;100.00;98746.66;7398484;19;19950;-68
2023/10/20 09:33:11;;;;;;;0.93;0.60;;;;;;;6.84;100.00;98743.41;7396037;19;20295;-68
2023/10/20 09:35:41;;;;;;;1.25;0.90;;;;;;;6.83;100.00;98743.59;7393385;19;19923;-68
2023/10/20 09:38:15;;;;;;;2.30;0.60;;;;;;;6.81;100.00;98745.66;7396350;19;19922;-69
2023/10/20 09:40:46;;;;;;;1.13;0.50;;;;;;;6.83;100.00;98739.06;7396757;19;19919;-68
2023/10/20 09:43:22;;;;;;;0.52;0.40;;;;;;;6.78;100.00;98728.16;7397889;19;20262;-69
2023/10/20 09:45:58;;;;;;;1.67;0.50;;;;;;;6.82;100.00;98737.41;7398791;19;19919;-69
2023/10/20 09:48:29;;;;;;;1.02;0.68;;;;;;;6.79;100.00;98735.16;7396599;19;19926;-69
2023/10/20 09:50:58;;;;;;;0.50;0.40;;;;;;;6.80;100.00;98730.63;7397023;19;19922;-69
2023/10/20 09:53:30;;;;;;;1.13;0.75;;;;;;;6.80;100.00;98739.47;7396507;19;19919;-69
2023/10/20 09:55:59;;;;;;;1.55;1.20;;;;;;;6.81;100.00;98746.50;7392919;19;19927;-68
2023/10/20 09:58:28;;;;;;;1.60;0.60;;;;;;;6.80;100.00;98746.69;7393154;19;19954;-68
2023/10/20 10:00:58;;;;;;;0.63;0.60;;;;;;;6.80;100.00;98752.03;7396158;19;19926;-67
2023/10/20 10:03:34;;;;;;;1.10;0.60;;;;;;;6.78;100.00;98743.38;7395686;19;19926;-67
2023/10/20 10:06:05;;;;;;;1.23;0.50;;;;;;;6.77;100.00;98745.22;7377076;19;20463;-68
2023/10/20 10:08:40;;;;;;;0.93;0.35;;;;;;;6.76;100.00;98740.09;7378131;19;20465;-67
2023/10/20 10:11:31;;;;;;;1.73;0.80;;;;;;;6.71;100.00;98726.50;7375614;19;20586;-69
2023/10/20 10:14:04;;;;;;;0.60;0.57;;;;;;;6.77;100.00;98736.41;7394173;19;19923;-68
2023/10/20 10:16:33;;;;;;;0.90;0.73;;;;;;;6.78;100.00;98727.31;7395789;19;19934;-68
2023/10/20 10:19:09;;;;;;;1.25;0.70;;;;;;;6.76;100.00;98737.41;7393601;19;19926;-69
2023/10/20 10:21:42;;;;;;;0.73;0.57;;;;;;;6.78;100.00;98733.50;7395411;19;20889;-68
2023/10/20 10:24:24;;;;;;;2.25;0.60;;;;;;;6.77;100.00;98731.84;7395898;19;19930;-70
2023/10/20 10:26:54;;;;;;;1.40;0.50;;;;;;;6.80;100.00;98719.91;7376794;19;20597;-68
2023/10/20 10:29:43;;;;;;;0.82;0.60;;;;;;;6.80;100.00;98735.97;7376965;19;19932;-68
2023/10/20 10:32:14;;;;;;;1.60;0.70;;;;;;;6.79;100.00;98726.28;7371216;19;19922;-69
2023/10/20 10:34:44;;;;;;;0.80;0.50;;;;;;;6.78;100.00;98722.78;7351777;19;20268;-68
2023/10/20 10:37:13;;;;;;;0.50;0.40;;;;;;;6.73;100.00;98700.38;7359508;19;19922;-69
2023/10/20 10:39:44;;;;;;;0.68;0.47;;;;;;;6.73;100.00;98716.44;7380531;19;19990;-69
2023/10/20 10:42:14;;;;;;;0.85;0.40;;;;;;;6.70;100.00;98706.94;7393681;19;19965;-69
2023/10/20 10:44:42;;;;;;;0.50;0.40;;;;;;;6.71;100.00;98697.91;7393748;19;19943;-69
2023/10/20 10:47:20;;;;;;;1.75;0.65;;;;;;;6.71;100.00;98694.38;7395871;19;19926;-69
2023/10/20 10:49:52;;;;;;;0.93;0.50;;;;;;;6.68;100.00;98686.78;7393625;19;19926;-69
2023/10/20 10:52:21;;;;;;;0.90;0.40;;;;;;;6.65;100.00;98679.97;7395087;19;19936;-69
2023/10/20 10:54:53;;;;;;;0.52;0.30;;;;;;;6.67;100.00;98671.75;7391709;19;19922;-69
2023/10/20 10:57:21;;;;;;;0.85;0.40;;;;;;;6.65;100.00;98687.19;7392209;19;20368;-69
2023/10/20 10:59:50;;;;;;;2.40;1.50;;;;;;;6.64;100.00;98675.69;7394796;19;20394;-68
2023/10/20 11:02:19;;;;;;;1.15;0.80;;;;;;;6.62;100.00;98666.19;7395977;19;19934;-69
2023/10/20 11:04:48;;;;;;;0.80;0.60;;;;;;;6.60;100.00;98654.88;7396699;19;19927;-69
2023/10/20 11:07:18;;;;;;;1.17;0.82;;;;;;;6.60;100.00;98655.69;7394707;19;19922;-68
2023/10/20 11:09:46;;;;;;;1.90;0.80;;;;;;;6.58;100.00;98651.59;7380773;19;19986;-69
2023/10/20 11:12:17;;;;;;;1.35;0.40;;;;;;;6.59;100.00;98663.94;7367065;19;19926;-68
2023/10/20 11:14:47;;;;;;;0.45;0.40;;;;;;;6.60;100.00;98649.53;7366763;19;19915;-67
2023/10/20 11:17:16;;;;;;;1.90;0.75;;;;;;;6.61;100.00;98643.97;7384802;19;19927;-68
2023/10/20 11:19:45;;;;;;;2.40;0.98;;;;;;;6.63;100.00;98646.44;7396074;19;19958;-68
2023/10/20 11:22:17;;;;;;;1.05;0.60;;;;;;;6.62;100.00;98645.63;7386842;19;19923;-68
2023/10/20 11:24:53;;;;;;;0.98;0.57;;;;;;;6.62;100.00;98640.25;7392366;19;19983;-68
2023/10/20 11:27:24;;;;;;;1.15;0.60;;;;;;;6.61;100.00;98630.59;7375262;19;20321;-68
2023/10/20 11:29:53;;;;;;;2.08;0.77;;;;;;;6.61;100.00;98638.63;7362892;19;19930;-69
2023/10/20 11:32:22;;;;;;;0.93;0.60;;;;;;;6.61;100.00;98619.06;7382398;19;19929;-68
2023/10/20 11:34:51;;;;;;;1.15;0.68;;;;;;;6.60;100.00;98617.44;7389109;19;19930;-68
2023/10/20 11:37:19;;;;;;;0.82;0.40;;;;;;;6.60;100.00;98618.22;7381982;19;19923;-68
2023/10/20 11:39:48;;;;;;;0.73;0.43;;;;;;;6.60;100.00;98604.06;7396220;19;19935;-68
2023/10/20 11:42:17;;;;;;;0.45;0.40;;;;;;;6.60;100.00;98602.19;7372245;19;19929;-68
2023/10/20 11:44:48;;;;;;;1.58;0.60;;;;;;;6.64;100.00;98599.94;7369910;19;19933;-68
2023/10/20 11:47:18;;;;;;;0.57;0.45;;;;;;;6.61;100.00;98598.50;7362927;19;19959;-69
2023/10/20 11:49:47;;;;;;;1.02;0.93;;;;;;;6.61;100.00;98592.31;7361885;19;19919;-69
2023/10/20 11:52:16;;;;;;;1.42;0.43;;;;;;;6.61;100.00;98578.94;7383193;19;19922;-68
2023/10/20 11:54:45;;;;;;;0.43;0.30;;;;;;;6.60;100.00;98588.81;7373821;19;19923;-68
2023/10/20 11:57:14;;;;;;;0.60;0.50;;;;;;;6.62;100.00;98569.88;7363111;19;19926;-68
2023/10/20 11:59:43;;;;;;;0.57;0.43;;;;;;;6.63;100.00;98579.56;7374848;19;19943;-68
2023/10/20 12:02:14;;;;;;;2.17;0.40;;;;;;;6.65;100.00;98578.31;7406771;19;20275;-68
2023/10/20 12:04:42;;;;;;;0.55;0.50;;;;;;;6.63;100.00;98568.88;7398928;19;19922;-68
2023/10/20 12:07:11;;;;;;;0.93;0.80;;;;;;;6.65;100.00;98562.25;7395433;19;19939;-69
2023/10/20 12:09:40;;;;;;;0.30;0.30;;;;;;;6.66;100.00;98557.72;7396959;19;19922;-68